createdAt,value
2019-03-04T00:01:09.504Z,22.97
2019-03-04T00:03:38.412Z,22.90
2019-03-04T00:06:07.462Z,21.80
2019-03-04T00:08:36.261Z,22.37
2019-03-04T00:11:05.114Z,22.70
2019-03-04T00:13:34.246Z,22.33
2019-03-04T00:16:03.171Z,22.90
2019-03-04T00:18:32.068Z,23.67
2019-03-04T00:21:01.006Z,22.73
2019-03-04T00:23:30.275Z,24.17
2019-03-04T00:25:59.234Z,23.93
2019-03-04T00:28:28.292Z,23.40
2019-03-04T00:30:57.247Z,24.10
2019-03-04T00:33:26.007Z,24.73
2019-03-04T00:35:56.091Z,22.90
2019-03-04T00:38:25.193Z,22.40
2019-03-04T00:40:54.155Z,22.27
2019-03-04T00:43:23.920Z,23.27
2019-03-04T00:45:52.741Z,23.07
2019-03-04T00:48:21.863Z,21.90
2019-03-04T00:50:51.188Z,22.47
2019-03-04T00:53:20.062Z,23.00
2019-03-04T00:55:48.910Z,21.70
2019-03-04T00:58:18.087Z,22.30
2019-03-04T01:00:46.844Z,22.83
2019-03-04T01:03:15.558Z,22.80
2019-03-04T01:05:44.313Z,23.03
2019-03-04T01:08:13.138Z,22.67
2019-03-04T01:10:41.987Z,23.13
2019-03-04T01:13:10.740Z,23.13
2019-03-04T01:15:40.600Z,22.87
2019-03-04T01:18:09.332Z,24.17
2019-03-04T01:20:38.380Z,23.03
2019-03-04T01:23:07.125Z,23.10
2019-03-04T01:25:37.008Z,24.20
2019-03-04T01:28:06.907Z,23.20
2019-03-04T01:30:35.874Z,22.43
2019-03-04T01:33:04.675Z,23.13
2019-03-04T01:35:33.638Z,23.37
2019-03-04T01:38:02.464Z,23.10
2019-03-04T01:40:31.336Z,23.00
2019-03-04T01:43:00.251Z,24.00
2019-03-04T01:45:29.118Z,23.33
2019-03-04T01:47:57.906Z,22.87
2019-03-04T01:50:26.812Z,24.30
2019-03-04T01:52:55.722Z,22.57
2019-03-04T01:55:24.708Z,24.33
2019-03-04T01:57:53.553Z,22.87
2019-03-04T02:00:22.439Z,23.10
2019-03-04T02:02:51.624Z,23.97
2019-03-04T02:05:20.528Z,25.17
2019-03-04T02:07:49.567Z,23.43
2019-03-04T02:10:19.114Z,22.70
2019-03-04T02:12:48.174Z,22.50
2019-03-04T02:15:18.122Z,24.13
2019-03-04T02:17:47.183Z,22.97
2019-03-04T02:20:16.972Z,23.93
2019-03-04T02:22:46.034Z,26.03
2019-03-04T02:25:17.132Z,23.07
2019-03-04T02:27:48.891Z,23.30
2019-03-04T02:30:20.763Z,23.10
2019-03-04T02:32:49.727Z,24.10
2019-03-04T02:35:18.961Z,23.47
2019-03-04T02:37:47.943Z,23.03
2019-03-04T02:40:16.786Z,22.63
2019-03-04T02:42:45.623Z,23.97
2019-03-04T02:45:16.762Z,23.53
2019-03-04T02:47:45.771Z,22.10
2019-03-04T02:50:15.373Z,22.50
2019-03-04T02:52:44.462Z,22.93
2019-03-04T02:55:14.609Z,22.67
2019-03-04T02:57:43.563Z,24.07
2019-03-04T03:00:13.429Z,23.17
2019-03-04T03:02:42.799Z,23.30
2019-03-04T03:05:11.836Z,23.33
2019-03-04T03:07:40.947Z,23.40
2019-03-04T03:10:10.213Z,23.73
2019-03-04T03:12:40.102Z,22.07
2019-03-04T03:15:09.682Z,22.40
2019-03-04T03:17:39.017Z,23.03
2019-03-04T03:20:09.001Z,23.60
2019-03-04T03:22:38.063Z,22.83
2019-03-04T03:25:07.500Z,22.80
2019-03-04T03:27:36.413Z,22.57
2019-03-04T03:30:07.227Z,22.80
2019-03-04T03:32:36.265Z,23.03
2019-03-04T03:35:08.246Z,24.50
2019-03-04T03:37:37.251Z,24.27
2019-03-04T03:40:07.861Z,22.27
2019-03-04T03:42:37.024Z,21.93
2019-03-04T03:45:06.713Z,24.00
2019-03-04T03:47:35.574Z,23.33
2019-03-04T03:50:05.285Z,22.97
2019-03-04T03:52:34.303Z,21.70
2019-03-04T03:55:22.274Z,23.37
2019-03-04T03:57:51.111Z,23.43
2019-03-04T04:00:20.605Z,23.53
2019-03-04T04:02:49.401Z,22.43
2019-03-04T04:05:18.483Z,23.03
2019-03-04T04:07:47.865Z,23.00
2019-03-04T04:10:17.725Z,22.70
2019-03-04T04:12:47.289Z,23.20
2019-03-04T04:15:16.950Z,23.20
2019-03-04T04:17:45.957Z,22.60
2019-03-04T04:20:15.021Z,22.87
2019-03-04T04:22:43.907Z,23.03
2019-03-04T04:25:13.078Z,22.50
2019-03-04T04:27:42.027Z,22.57
2019-03-04T04:30:11.480Z,23.33
2019-03-04T04:32:40.542Z,23.73
2019-03-04T04:35:09.991Z,21.00
2019-03-04T04:37:39.262Z,21.47
2019-03-04T04:40:08.240Z,21.40
2019-03-04T04:42:37.220Z,23.07
2019-03-04T04:45:06.192Z,21.50
2019-03-04T04:47:35.440Z,20.90
2019-03-04T04:50:04.791Z,22.77
2019-03-04T04:52:33.770Z,22.67
2019-03-04T04:55:02.571Z,21.17
2019-03-04T04:57:31.796Z,21.07
2019-03-04T05:00:00.578Z,22.90
2019-03-04T05:02:29.385Z,22.90
2019-03-04T05:04:58.964Z,22.67
2019-03-04T05:07:28.116Z,23.73
2019-03-04T05:09:56.945Z,22.63
2019-03-04T05:12:25.894Z,22.33
2019-03-04T05:14:55.048Z,22.23
2019-03-04T05:17:23.975Z,23.27
2019-03-04T05:19:53.261Z,23.17
2019-03-04T05:22:22.039Z,23.30
2019-03-04T05:24:50.827Z,25.10
2019-03-04T05:27:25.623Z,24.07
2019-03-04T05:29:56.676Z,25.23
2019-03-04T05:32:27.423Z,25.17
2019-03-04T05:37:30.583Z,24.77
2019-03-04T05:39:59.480Z,23.63
2019-03-04T05:42:28.473Z,24.63
2019-03-04T05:44:57.438Z,24.17
2019-03-04T05:47:26.683Z,23.47
2019-03-04T05:49:55.561Z,24.13
2019-03-04T05:52:24.749Z,22.80
2019-03-04T05:54:53.640Z,24.70
2019-03-04T05:57:22.523Z,22.93
2019-03-04T05:59:51.348Z,24.57
2019-03-04T06:02:20.554Z,23.87
2019-03-04T06:04:49.395Z,24.37
2019-03-04T06:07:34.525Z,26.00
2019-03-04T06:10:03.602Z,25.17
2019-03-04T06:12:32.493Z,25.03
2019-03-04T06:15:01.706Z,24.10
2019-03-04T06:17:30.715Z,25.13
2019-03-04T06:19:59.893Z,25.43
2019-03-04T06:22:28.907Z,25.37
2019-03-04T06:24:57.745Z,24.53
2019-03-04T06:27:26.660Z,23.73
2019-03-04T06:29:55.531Z,24.90
2019-03-04T06:32:24.449Z,32.93
2019-03-04T06:34:53.388Z,24.43
2019-03-04T06:37:22.234Z,24.93
2019-03-04T06:39:51.182Z,24.00
2019-03-04T06:42:20.354Z,25.33
2019-03-04T06:44:49.573Z,24.53
2019-03-04T06:47:18.463Z,23.00
2019-03-04T06:49:47.407Z,24.80
2019-03-04T06:52:16.749Z,24.30
2019-03-04T06:55:25.892Z,25.20
2019-03-04T06:57:54.882Z,25.97
2019-03-04T07:00:57.808Z,24.43
2019-03-04T07:03:38.269Z,24.97
2019-03-04T07:06:07.258Z,24.80
2019-03-04T07:09:00.101Z,24.33
2019-03-04T07:11:29.839Z,25.80
2019-03-04T07:13:59.171Z,25.20
2019-03-04T07:16:28.300Z,25.27
2019-03-04T07:18:57.623Z,24.63
2019-03-04T07:21:26.569Z,24.20
2019-03-04T07:23:55.819Z,25.60
2019-03-04T07:26:25.600Z,23.10
2019-03-04T07:28:54.813Z,25.30
2019-03-04T07:31:23.591Z,26.50
2019-03-04T07:33:52.357Z,25.37
2019-03-04T07:36:21.568Z,25.47
2019-03-04T07:38:55.685Z,24.87
2019-03-04T07:41:24.886Z,25.67
2019-03-04T07:43:53.698Z,24.63
2019-03-04T07:46:22.633Z,24.37
2019-03-04T07:48:51.913Z,24.03
2019-03-04T07:51:20.852Z,26.03
2019-03-04T07:53:50.017Z,25.27
2019-03-04T07:56:18.975Z,25.00
2019-03-04T07:58:48.308Z,25.90
2019-03-04T08:01:17.274Z,26.20
2019-03-04T08:03:46.593Z,26.10
2019-03-04T08:06:15.439Z,25.87
2019-03-04T08:09:11.037Z,25.47
2019-03-04T08:12:19.624Z,25.00
2019-03-04T08:14:48.949Z,26.07
2019-03-04T08:17:17.989Z,27.30
2019-03-04T08:19:46.953Z,28.43
2019-03-04T08:22:15.823Z,26.97
2019-03-04T08:24:44.841Z,26.83
2019-03-04T08:27:13.771Z,24.50
2019-03-04T08:29:42.703Z,29.37
2019-03-04T08:32:12.103Z,27.30
2019-03-04T08:34:40.896Z,26.40
2019-03-04T08:37:09.668Z,26.30
2019-03-04T08:39:38.689Z,27.40
2019-03-04T08:42:07.533Z,27.43
2019-03-04T08:44:36.414Z,26.90
2019-03-04T08:47:05.645Z,26.13
2019-03-04T08:49:34.484Z,27.33
2019-03-04T08:52:03.271Z,26.33
2019-03-04T08:54:32.151Z,26.47
2019-03-04T08:57:04.218Z,26.17
2019-03-04T08:59:31.877Z,26.57
2019-03-04T09:02:00.877Z,28.67
2019-03-04T09:04:29.677Z,27.90
2019-03-04T09:06:58.523Z,26.40
2019-03-04T09:09:27.488Z,34.50
2019-03-04T09:11:56.369Z,26.00
2019-03-04T09:14:25.268Z,27.63
2019-03-04T09:16:54.175Z,26.33
2019-03-04T09:19:23.075Z,26.87
2019-03-04T09:21:52.980Z,26.47
2019-03-04T09:24:22.042Z,28.53
2019-03-04T09:26:51.362Z,26.30
2019-03-04T09:29:20.271Z,27.83
2019-03-04T09:31:49.481Z,27.13
2019-03-04T09:34:18.409Z,28.17
2019-03-04T09:36:47.352Z,27.37
2019-03-04T09:39:16.989Z,29.50
2019-03-04T09:41:45.877Z,28.53
2019-03-04T09:44:14.926Z,27.47
2019-03-04T09:46:46.325Z,27.03
2019-03-04T09:49:15.285Z,27.60
2019-03-04T09:51:44.498Z,27.00
2019-03-04T09:54:14.193Z,27.87
2019-03-04T09:56:44.802Z,27.10
2019-03-04T09:59:14.114Z,28.57
2019-03-04T10:05:04.847Z,27.23
2019-03-04T10:08:07.880Z,26.93
2019-03-04T10:11:01.790Z,28.30
2019-03-04T10:14:01.172Z,28.10
2019-03-04T10:16:53.372Z,27.37
2019-03-04T10:20:07.708Z,27.47
2019-03-04T10:22:53.835Z,27.27
2019-03-04T10:25:48.559Z,27.13
2019-03-04T10:28:46.959Z,28.43
2019-03-04T10:31:53.676Z,28.87
2019-03-04T10:35:00.835Z,27.70
2019-03-04T10:37:59.910Z,27.13
2019-03-04T10:41:00.554Z,26.53
2019-03-04T10:43:52.403Z,28.00
2019-03-04T10:46:38.048Z,26.80
2019-03-04T10:49:06.968Z,27.00
2019-03-04T10:51:35.867Z,27.33
2019-03-04T10:54:05.009Z,26.67
2019-03-04T10:56:34.146Z,27.30
2019-03-04T10:59:03.105Z,28.00
2019-03-04T11:01:32.064Z,28.53
2019-03-04T11:04:01.056Z,28.00
2019-03-04T11:06:30.674Z,27.97
2019-03-04T11:08:59.617Z,27.23
2019-03-04T11:11:30.094Z,27.50
2019-03-04T11:13:59.234Z,27.10
2019-03-04T11:16:28.790Z,28.63
2019-03-04T11:18:58.112Z,28.13
2019-03-04T11:21:27.082Z,29.07
2019-03-04T11:23:56.177Z,25.70
2019-03-04T11:26:25.130Z,28.13
2019-03-04T11:28:53.938Z,26.10
2019-03-04T11:31:22.889Z,27.03
2019-03-04T11:33:52.143Z,27.57
2019-03-04T11:36:20.887Z,27.47
2019-03-04T11:38:52.938Z,28.03
2019-03-04T11:41:22.988Z,27.93
2019-03-04T11:43:52.084Z,27.67
2019-03-04T11:46:23.471Z,27.33
2019-03-04T11:48:52.691Z,27.60
2019-03-04T11:51:22.151Z,27.80
2019-03-04T11:53:51.007Z,26.33
2019-03-04T11:56:19.947Z,26.60
2019-03-04T11:58:48.952Z,25.50
2019-03-04T12:01:26.651Z,27.70
2019-03-04T12:03:55.584Z,27.33
2019-03-04T12:06:24.634Z,25.97
2019-03-04T12:08:53.444Z,27.20
2019-03-04T12:11:22.829Z,26.97
2019-03-04T12:13:51.713Z,25.13
2019-03-04T12:16:20.896Z,26.83
2019-03-04T12:18:49.739Z,26.60
2019-03-04T12:21:18.656Z,27.77
2019-03-04T12:23:47.712Z,28.57
2019-03-04T12:26:18.511Z,28.03
2019-03-04T12:28:47.105Z,28.27
2019-03-04T12:31:16.103Z,35.50
2019-03-04T12:33:44.964Z,26.50
2019-03-04T12:36:13.847Z,27.40
2019-03-04T12:38:42.631Z,26.13
2019-03-04T12:41:11.437Z,27.00
2019-03-04T12:43:40.644Z,27.60
2019-03-04T12:46:09.610Z,27.60
2019-03-04T12:48:38.426Z,28.27
2019-03-04T12:51:07.602Z,27.97
2019-03-04T12:53:37.460Z,26.07
2019-03-04T12:56:06.984Z,26.80
2019-03-04T12:58:36.023Z,26.67
2019-03-04T13:01:05.048Z,26.90
2019-03-04T13:03:33.898Z,27.17
2019-03-04T13:06:03.204Z,25.83
2019-03-04T13:08:32.084Z,26.80
2019-03-04T13:11:01.426Z,25.30
2019-03-04T13:13:30.410Z,26.90
2019-03-04T13:16:01.873Z,24.47
2019-03-04T13:18:31.024Z,25.53
2019-03-04T13:20:59.854Z,26.23
2019-03-04T13:23:28.598Z,25.73
2019-03-04T13:25:57.511Z,27.77
2019-03-04T13:28:26.304Z,26.77
2019-03-04T13:30:56.207Z,29.27
2019-03-04T13:33:26.005Z,26.53
2019-03-04T13:35:55.438Z,26.00
2019-03-04T13:38:24.356Z,27.00
2019-03-04T13:40:53.191Z,24.70
2019-03-04T13:43:22.140Z,26.57
2019-03-04T13:45:51.202Z,25.70
2019-03-04T13:48:20.514Z,26.40
2019-03-04T13:50:49.389Z,25.53
2019-03-04T13:53:18.488Z,26.10
2019-03-04T13:55:47.285Z,27.87
2019-03-04T13:58:16.367Z,25.83
2019-03-04T14:00:45.402Z,26.57
2019-03-04T14:03:14.480Z,24.90
2019-03-04T14:05:43.208Z,26.20
2019-03-04T14:08:12.295Z,26.47
2019-03-04T14:10:41.180Z,26.33
2019-03-04T14:13:10.374Z,26.13
2019-03-04T14:15:39.908Z,26.53
2019-03-04T14:18:09.169Z,26.20
2019-03-04T14:20:38.494Z,24.83
2019-03-04T14:23:07.457Z,25.87
2019-03-04T14:25:36.356Z,27.97
2019-03-04T14:28:05.452Z,25.23
2019-03-04T14:30:34.283Z,25.53
2019-03-04T14:33:03.207Z,25.13
2019-03-04T14:35:32.051Z,24.70
2019-03-04T14:38:00.937Z,25.73
2019-03-04T14:40:29.788Z,26.23
2019-03-04T14:42:59.001Z,24.77
2019-03-04T14:45:27.888Z,24.90
2019-03-04T14:47:57.278Z,24.37
2019-03-04T14:50:28.347Z,25.30
2019-03-04T14:52:56.682Z,25.77
2019-03-04T14:55:25.689Z,24.63
2019-03-04T14:57:55.016Z,24.57
2019-03-04T15:00:30.123Z,24.60
2019-03-04T15:02:59.392Z,25.53
2019-03-04T15:05:28.138Z,25.17
2019-03-04T15:07:57.081Z,24.37
2019-03-04T15:10:26.156Z,24.83
2019-03-04T15:12:55.015Z,25.67
2019-03-04T15:15:24.116Z,25.17
2019-03-04T15:17:53.628Z,25.80
2019-03-04T15:20:23.264Z,23.93
2019-03-04T15:22:57.621Z,23.87
2019-03-04T15:25:28.751Z,25.63
2019-03-04T15:28:09.353Z,24.10
2019-03-04T15:30:38.859Z,24.33
2019-03-04T15:33:17.151Z,27.50
2019-03-04T15:35:38.374Z,26.00
2019-03-04T15:38:07.317Z,32.83
2019-03-04T15:40:36.121Z,24.87
2019-03-04T15:43:05.129Z,25.40
2019-03-04T15:45:34.109Z,25.00
2019-03-04T15:48:03.426Z,24.17
2019-03-04T15:50:32.444Z,25.63
2019-03-04T15:53:01.614Z,25.20
2019-03-04T15:55:30.378Z,25.23
2019-03-04T15:57:59.302Z,24.40
2019-03-04T16:00:28.612Z,25.67
2019-03-04T16:02:57.548Z,25.13
2019-03-04T16:05:26.500Z,24.37
2019-03-04T16:07:55.483Z,26.50
2019-03-04T16:10:25.302Z,25.00
2019-03-04T16:12:54.323Z,26.13
2019-03-04T16:15:23.400Z,23.77
2019-03-04T16:17:52.401Z,25.83
2019-03-04T16:20:21.396Z,24.70
2019-03-04T16:22:50.915Z,24.30
2019-03-04T16:25:20.163Z,24.50
2019-03-04T16:27:49.133Z,24.97
2019-03-04T16:30:19.771Z,23.90
2019-03-04T16:32:48.767Z,25.37
2019-03-04T16:35:17.747Z,25.00
2019-03-04T16:37:47.063Z,24.00
2019-03-04T16:40:16.529Z,23.10
2019-03-04T16:42:45.409Z,24.17
2019-03-04T16:45:16.378Z,24.47
2019-03-04T16:47:46.395Z,23.87
2019-03-04T16:50:15.728Z,25.40
2019-03-04T16:52:45.832Z,30.20
2019-03-04T16:55:16.287Z,65.13
2019-03-04T16:57:46.227Z,23.33
2019-03-04T17:00:16.669Z,22.93
2019-03-04T17:02:46.106Z,23.13
2019-03-04T17:05:16.396Z,22.20
2019-03-04T17:07:47.128Z,22.30
2019-03-04T17:10:17.147Z,22.60
2019-03-04T17:12:46.342Z,21.87
2019-03-04T17:15:18.043Z,22.97
2019-03-04T17:17:47.070Z,23.10
2019-03-04T17:20:16.734Z,24.30
2019-03-04T17:22:46.688Z,22.70
2019-03-04T17:25:16.118Z,23.47
2019-03-04T17:27:45.289Z,23.07
2019-03-04T17:30:16.697Z,23.40
2019-03-04T17:32:46.204Z,21.60
2019-03-04T17:35:17.389Z,22.70
2019-03-04T17:37:46.492Z,23.00
2019-03-04T17:40:16.245Z,23.03
2019-03-04T17:42:45.180Z,22.00
2019-03-04T17:45:15.976Z,22.07
2019-03-04T17:47:44.972Z,22.43
2019-03-04T17:50:21.372Z,22.90
2019-03-04T17:52:50.243Z,22.50
2019-03-04T17:55:19.163Z,22.97
2019-03-04T17:57:48.326Z,22.70
2019-03-04T18:00:17.511Z,23.53
2019-03-04T18:02:46.516Z,22.23
2019-03-04T18:05:15.871Z,23.23
2019-03-04T18:07:44.741Z,21.67
2019-03-04T18:10:14.835Z,23.17
2019-03-04T18:12:43.845Z,23.00
2019-03-04T18:15:15.505Z,22.10
2019-03-04T18:17:44.474Z,19.60
2019-03-04T18:20:13.755Z,16.47
2019-03-04T18:22:42.686Z,15.00
2019-03-04T18:25:15.627Z,13.20
2019-03-04T18:27:56.907Z,12.33
2019-03-04T18:30:31.006Z,14.50
2019-03-04T18:33:30.821Z,12.57
2019-03-04T18:36:16.185Z,12.83
2019-03-04T18:39:02.840Z,11.90
2019-03-04T18:41:44.110Z,11.83
2019-03-04T18:45:03.856Z,11.13
2019-03-04T18:47:53.050Z,12.30
2019-03-04T18:50:23.177Z,12.63
2019-03-04T18:52:52.747Z,12.23
2019-03-04T18:55:21.769Z,12.57
2019-03-04T18:57:51.332Z,13.00
2019-03-04T19:00:23.514Z,13.13
2019-03-04T19:02:53.241Z,12.50
2019-03-04T19:05:22.744Z,13.87
2019-03-04T19:07:51.623Z,13.27
2019-03-04T19:10:20.668Z,17.60
2019-03-04T19:12:49.517Z,14.67
2019-03-04T19:15:18.503Z,13.93
2019-03-04T19:17:47.515Z,14.10
2019-03-04T19:20:16.410Z,13.40
2019-03-04T19:22:45.291Z,12.70
2019-03-04T19:25:15.154Z,13.47
2019-03-04T19:27:43.979Z,13.33
2019-03-04T19:30:13.034Z,12.90
2019-03-04T19:32:41.862Z,12.90
2019-03-04T19:35:10.851Z,17.37
2019-03-04T19:37:39.680Z,14.27
2019-03-04T19:40:09.044Z,14.80
2019-03-04T19:42:38.079Z,14.70
2019-03-04T19:45:09.378Z,13.97
2019-03-04T19:47:38.284Z,13.70
2019-03-04T19:50:08.289Z,13.57
2019-03-04T19:52:37.313Z,25.93
2019-03-04T19:55:07.630Z,13.37
2019-03-04T19:57:37.526Z,13.73
2019-03-04T20:00:08.586Z,14.10
2019-03-04T20:02:37.757Z,14.30
2019-03-04T20:05:06.883Z,13.43
2019-03-04T20:07:35.741Z,13.63
2019-03-04T20:10:05.436Z,13.97
2019-03-04T20:12:34.639Z,15.27
2019-03-04T20:15:03.960Z,14.57
2019-03-04T20:17:32.899Z,14.97
2019-03-04T20:20:02.024Z,15.27
2019-03-04T20:22:30.903Z,16.40
2019-03-04T20:24:59.964Z,15.70
2019-03-04T20:27:28.787Z,15.70
2019-03-04T20:29:57.934Z,17.80
2019-03-04T20:32:26.950Z,15.67
2019-03-04T20:34:55.799Z,17.27
2019-03-04T20:37:25.950Z,17.23
2019-03-04T20:39:54.711Z,16.13
2019-03-04T20:42:23.552Z,16.50
2019-03-04T20:44:52.390Z,17.20
2019-03-04T20:47:21.203Z,18.63
2019-03-04T20:49:50.025Z,17.60
2019-03-04T20:52:19.033Z,18.10
2019-03-04T20:54:47.937Z,17.80
2019-03-04T20:57:16.810Z,18.07
2019-03-04T20:59:45.588Z,19.00
2019-03-04T21:02:14.651Z,18.43
2019-03-04T21:04:43.562Z,19.03
2019-03-04T21:07:12.364Z,19.90
2019-03-04T21:09:41.983Z,18.27
2019-03-04T21:12:10.915Z,19.60
2019-03-04T21:14:39.720Z,31.00
2019-03-04T21:17:08.575Z,19.53
2019-03-04T21:19:37.372Z,19.20
2019-03-04T21:22:06.303Z,22.43
2019-03-04T21:24:35.091Z,18.97
2019-03-04T21:27:04.139Z,19.60
2019-03-04T21:30:15.634Z,19.10
2019-03-04T21:33:11.952Z,19.83
2019-03-04T21:36:08.312Z,18.77
2019-03-04T21:38:37.559Z,18.97
2019-03-04T21:41:26.343Z,18.37
2019-03-04T21:44:25.664Z,21.07
2019-03-04T21:47:14.500Z,21.10
2019-03-04T21:49:46.808Z,18.83
2019-03-04T21:52:31.398Z,19.00
2019-03-04T21:55:00.578Z,19.37
2019-03-04T21:57:38.799Z,20.40
2019-03-04T22:00:15.361Z,19.83
2019-03-04T22:02:54.898Z,21.80
2019-03-04T22:05:23.807Z,19.77
2019-03-04T22:07:52.678Z,19.10
2019-03-04T22:10:21.761Z,19.60
2019-03-04T22:12:51.100Z,20.47
2019-03-04T22:15:20.130Z,20.30
2019-03-04T22:17:49.195Z,20.43
2019-03-04T22:20:18.450Z,18.60
2019-03-04T22:22:47.343Z,19.80
2019-03-04T22:25:17.055Z,20.37
2019-03-04T22:27:45.859Z,20.13
2019-03-04T22:30:16.299Z,19.33
2019-03-04T22:32:45.393Z,19.87
2019-03-04T22:35:17.248Z,20.43
2019-03-04T22:37:49.270Z,18.77
2019-03-04T22:40:19.324Z,20.33
2019-03-04T22:42:48.772Z,17.93
2019-03-04T22:45:18.402Z,19.50
2019-03-04T22:47:48.183Z,18.73
2019-03-04T22:50:17.805Z,17.90
2019-03-04T22:52:47.123Z,19.23
2019-03-04T22:55:18.807Z,20.80
2019-03-04T22:57:47.667Z,19.13
2019-03-04T23:01:27.168Z,19.27
2019-03-04T23:04:20.689Z,18.80
2019-03-04T23:07:05.595Z,19.07
2019-03-04T23:09:42.699Z,19.90
2019-03-04T23:12:18.576Z,18.80
2019-03-04T23:14:48.700Z,18.80
2019-03-04T23:17:18.076Z,21.67
2019-03-04T23:19:47.215Z,19.53
2019-03-04T23:22:16.047Z,20.47
2019-03-04T23:24:45.319Z,19.13
2019-03-04T23:27:14.222Z,19.80
2019-03-04T23:29:43.183Z,18.47
2019-03-04T23:32:12.087Z,20.63
2019-03-04T23:34:40.968Z,20.53
2019-03-04T23:37:09.813Z,19.23
2019-03-04T23:39:38.558Z,19.67
2019-03-04T23:42:07.435Z,19.00
2019-03-04T23:44:36.391Z,19.37
2019-03-04T23:47:05.943Z,18.53
2019-03-04T23:49:34.854Z,20.30
2019-03-04T23:52:03.778Z,20.63
2019-03-04T23:54:32.593Z,20.83
2019-03-04T23:57:01.495Z,19.73
2019-03-04T23:59:31.059Z,19.40
